Time;durP1;ratioP1;P1;durP2;ratioP2;P2;SDS_P1;SDS_P2;PMS_P1;PMS_P2;Temp;Humidity;BMP_temperature;BMP_pressure;BME280_temperature;BME280_humidity;BME280_pressure;Samples;Min_cycle;Max_cycle;Signal;HPM_P1;HPM_P2
2022/03/29 00:00:40;;;;;;;;;39.67;31.67;;;;;15.36;84.79;101001.16;4998160;28;45366;-81
2022/03/29 00:03:07;;;;;;;;;33.67;26.00;;;;;15.34;88.50;100998.59;5004046;28;45209;-79
2022/03/29 00:05:34;;;;;;;;;36.33;32.00;;;;;15.32;86.38;100999.69;5007350;28;46376;-81
2022/03/29 00:08:00;;;;;;;;;42.00;30.67;;;;;15.30;87.47;100993.63;5005112;28;45365;-82
2022/03/29 00:10:26;;;;;;;;;46.00;35.00;;;;;15.28;83.83;100990.22;4986658;28;45977;-81
2022/03/29 00:12:53;;;;;;;;;39.00;31.00;;;;;15.28;88.24;100982.19;5004381;28;44736;-81
2022/03/29 00:15:20;;;;;;;;;44.67;36.33;;;;;15.26;86.75;100971.59;5001811;28;45501;-80
2022/03/29 00:17:47;;;;;;;;;35.00;31.00;;;;;15.24;87.18;100970.06;5000190;28;45439;-80
2022/03/29 00:20:13;;;;;;;;;39.00;32.33;;;;;15.24;90.44;100972.72;5000717;28;45285;-81
2022/03/29 00:22:39;;;;;;;;;47.67;33.67;;;;;15.21;91.09;100960.44;4997509;28;44858;-81
2022/03/29 00:25:05;;;;;;;;;37.00;31.33;;;;;15.20;88.76;100958.75;4996958;28;45252;-83
2022/03/29 00:27:30;;;;;;;;;45.67;33.67;;;;;15.20;87.36;100956.06;4997987;28;44954;-82
2022/03/29 00:29:56;;;;;;;;;40.67;33.33;;;;;15.19;89.96;100950.84;4998557;28;45434;-80
2022/03/29 00:32:22;;;;;;;;;39.33;33.67;;;;;15.15;87.90;100951.09;5002016;28;44846;-81
2022/03/29 00:34:47;;;;;;;;;33.67;30.67;;;;;15.15;90.87;100950.25;5000434;28;45584;-81
2022/03/29 00:37:12;;;;;;;;;37.33;31.00;;;;;15.13;90.59;100949.50;4996619;28;45511;-80
2022/03/29 00:39:38;;;;;;;;;22.67;15.00;;;;;15.10;90.86;100941.75;4996388;28;44819;-80
2022/03/29 00:42:03;;;;;;;;;37.00;33.00;;;;;15.09;91.75;100935.56;4996913;28;45493;-80
2022/03/29 00:44:35;;;;;;;;;33.67;30.67;;;;;15.05;89.39;100936.78;4996747;28;45497;-80
2022/03/29 00:47:01;;;;;;;;;47.00;38.33;;;;;15.03;91.17;100928.00;4996509;28;44848;-80
2022/03/29 00:49:27;;;;;;;;;36.33;30.00;;;;;15.02;87.19;100929.00;4997248;28;45381;-78
2022/03/29 00:51:57;;;;;;;;;43.67;39.33;;;;;15.01;91.16;100927.31;5003505;28;44931;-83
2022/03/29 00:54:28;;;;;;;;;48.67;37.67;;;;;15.01;92.54;100921.09;5005687;28;46070;-83
2022/03/29 00:56:56;;;;;;;;;59.67;43.00;;;;;14.98;91.05;100916.00;5008331;28;44887;-84
2022/03/29 00:59:22;;;;;;;;;55.33;42.67;;;;;14.97;93.20;100901.78;5010653;28;45449;-83
2022/03/29 01:01:48;;;;;;;;;51.33;40.67;;;;;14.97;93.01;100908.94;4999762;28;44930;-83
2022/03/29 01:04:14;;;;;;;;;54.33;41.33;;;;;14.95;92.87;100897.53;5000487;28;45240;-84
2022/03/29 01:06:40;;;;;;;;;48.67;41.00;;;;;14.94;93.55;100891.34;5003927;28;44847;-83
2022/03/29 01:09:06;;;;;;;;;47.67;35.33;;;;;14.94;92.51;100894.03;4988068;28;44777;-82
2022/03/29 01:11:32;;;;;;;;;52.33;40.33;;;;;14.92;92.73;100887.94;5004850;28;44928;-82
2022/03/29 01:14:00;;;;;;;;;47.00;34.33;;;;;14.92;92.98;100879.91;4998213;28;45290;-84
2022/03/29 01:19:12;;;;;;;;;50.33;37.33;;;;;14.90;93.46;100871.16;4996910;28;45412;-83
2022/03/29 01:21:39;;;;;;;;;41.67;31.67;;;;;14.86;92.35;100873.25;4997539;28;44966;-83
2022/03/29 01:24:08;;;;;;;;;40.33;33.00;;;;;14.86;92.63;100875.06;4998506;28;45270;-83
2022/03/29 01:26:35;;;;;;;;;51.67;37.00;;;;;14.84;93.30;100871.66;5003101;28;45439;-84
2022/03/29 01:29:01;;;;;;;;;38.67;33.67;;;;;14.83;92.62;100869.97;4982154;28;45326;-85
2022/03/29 01:31:28;;;;;;;;;35.33;28.33;;;;;14.80;93.14;100863.06;5003251;28;45268;-84
2022/03/29 01:33:56;;;;;;;;;48.67;34.67;;;;;14.80;93.38;100860.38;5004972;28;45222;-83
2022/03/29 01:36:21;;;;;;;;;42.67;34.67;;;;;14.80;92.31;100849.69;4982935;28;45252;-84
2022/03/29 01:38:47;;;;;;;;;36.00;34.00;;;;;14.76;92.34;100853.59;4999704;28;45472;-84
2022/03/29 01:41:13;;;;;;;;;33.00;24.75;;;;;14.74;91.18;100852.84;4982006;28;45525;-82
2022/03/29 01:43:38;;;;;;;;;34.00;26.67;;;;;14.71;90.12;100849.59;5000465;28;45137;-84
2022/03/29 01:46:04;;;;;;;;;24.67;24.00;;;;;14.70;89.82;100843.41;4998621;28;45283;-83
2022/03/29 01:48:30;;;;;;;;;32.00;27.00;;;;;14.68;89.67;100847.16;4997884;28;45300;-84
2022/03/29 01:50:55;;;;;;;;;35.00;33.00;;;;;14.68;91.57;100839.13;4998332;28;45379;-83
2022/03/29 01:53:27;;;;;;;;;32.33;25.00;;;;;14.68;90.25;100842.66;5005040;28;45280;-84
2022/03/29 01:56:00;;;;;;;;;42.00;33.00;;;;;14.69;90.43;100839.00;5003458;28;45415;-83
2022/03/29 01:58:31;;;;;;;;;41.67;31.00;;;;;14.66;91.55;100841.94;5016598;28;45551;-83
2022/03/29 02:00:58;;;;;;;;;39.75;32.00;;;;;14.64;91.02;100834.03;5017770;28;45337;-84
2022/03/29 02:03:23;;;;;;;;;36.33;31.67;;;;;14.64;88.36;100838.53;5017945;28;45090;-83
2022/03/29 02:05:50;;;;;;;;;43.00;31.33;;;;;14.63;90.22;100826.16;5017790;28;44843;-83
2022/03/29 02:08:19;;;;;;;;;39.00;32.00;;;;;14.61;85.79;100822.75;5002225;28;44759;-83
2022/03/29 02:10:45;;;;;;;;;31.50;25.25;;;;;14.62;89.24;100819.94;5025880;28;44743;-82
2022/03/29 02:13:10;;;;;;;;;41.67;35.00;;;;;14.64;90.24;100811.78;5024413;28;45373;-84
2022/03/29 02:15:40;;;;;;;;;32.33;28.00;;;;;14.64;90.25;100811.78;5019309;28;45417;-83
2022/03/29 02:18:06;;;;;;;;;36.00;31.25;;;;;14.62;88.07;100801.25;5018447;28;45405;-83
2022/03/29 02:20:32;;;;;;;;;31.67;29.33;;;;;14.58;89.05;100807.81;5025171;28;45186;-83
2022/03/29 02:23:02;;;;;;;;;34.00;29.00;;;;;14.54;85.40;100789.47;5025097;28;45349;-83
2022/03/29 02:25:28;;;;;;;;;37.67;31.33;;;;;14.51;91.35;100785.25;5001684;28;45406;-83
2022/03/29 02:27:55;;;;;;;;;18.00;18.00;;;;;14.50;88.08;100786.19;5017798;28;44751;-84
2022/03/29 02:30:20;;;;;;;;;33.25;28.75;;;;;14.47;90.00;100773.06;5021552;28;44664;-84
2022/03/29 02:32:46;;;;;;;;;38.00;29.75;;;;;14.46;89.77;100774.06;5023098;28;45216;-83
2022/03/29 02:35:12;;;;;;;;;42.33;34.67;;;;;14.47;89.31;100775.75;5019667;28;44755;-83
2022/03/29 02:37:37;;;;;;;;;36.67;34.33;;;;;14.45;87.83;100771.50;5020773;28;44775;-83
2022/03/29 02:40:03;;;;;;;;;38.33;31.33;;;;;14.44;89.04;100767.97;5023937;28;44950;-83
2022/03/29 02:42:29;;;;;;;;;39.00;30.75;;;;;14.42;87.67;100764.59;5021558;28;45223;-82
2022/03/29 02:44:54;;;;;;;;;31.00;25.67;;;;;14.43;86.49;100760.09;5021140;28;45432;-84
2022/03/29 02:47:20;;;;;;;;;40.00;32.67;;;;;14.41;86.50;100760.22;5021637;28;44712;-84
2022/03/29 02:49:46;;;;;;;;;42.33;33.00;;;;;14.40;86.71;100756.66;5005350;28;44982;-83
2022/03/29 02:52:11;;;;;;;;;31.25;24.00;;;;;14.42;85.59;100758.41;5024678;28;45154;-83
2022/03/29 02:54:38;;;;;;;;;39.50;28.75;;;;;14.39;83.98;100749.63;5005543;28;45373;-84
2022/03/29 02:57:04;;;;;;;;;31.67;25.67;;;;;14.40;82.33;100753.16;5002585;28;44811;-84
2022/03/29 02:59:29;;;;;;;;;33.33;30.00;;;;;14.40;83.01;100747.81;5002867;28;45612;-83
2022/03/29 03:01:56;;;;;;;;;29.50;28.25;;;;;14.37;81.67;100742.75;5002436;28;45193;-83
2022/03/29 03:04:22;;;;;;;;;30.00;26.75;;;;;14.39;82.92;100746.97;4984192;28;44761;-83
2022/03/29 03:06:47;;;;;;;;;28.33;26.00;;;;;14.42;83.22;100745.03;5002724;28;45432;-83
2022/03/29 03:09:12;;;;;;;;;29.00;24.00;;;;;14.39;83.14;100749.63;5004234;28;45455;-83
2022/03/29 03:11:38;;;;;;;;;33.50;26.00;;;;;14.38;82.13;100753.28;5005696;28;45570;-83
2022/03/29 03:14:03;;;;;;;;;32.75;30.25;;;;;14.40;82.75;100737.97;5008619;28;44746;-82
2022/03/29 03:16:29;;;;;;;;;27.00;26.25;;;;;14.42;81.56;100739.69;5009543;28;44870;-83
2022/03/29 03:18:54;;;;;;;;;34.50;28.00;;;;;14.43;80.49;100731.53;5004746;28;44977;-85
2022/03/29 03:21:20;;;;;;;;;34.00;32.75;;;;;14.42;80.97;100729.84;5003121;28;45290;-84
2022/03/29 03:23:45;;;;;;;;;34.50;30.00;;;;;14.44;78.03;100735.91;4999121;28;45458;-84
2022/03/29 03:26:11;;;;;;;;;29.50;26.25;;;;;14.44;78.25;100719.84;4999338;28;45338;-83
2022/03/29 03:28:36;;;;;;;;;34.00;27.50;;;;;14.46;77.55;100722.41;4999522;28;45552;-84
2022/03/29 03:31:02;;;;;;;;;35.00;29.00;;;;;14.49;78.16;100724.84;4981080;28;45701;-83
2022/03/29 03:33:27;;;;;;;;;31.25;27.00;;;;;14.50;79.46;100718.53;4999632;28;45284;-84
2022/03/29 03:35:53;;;;;;;;;29.00;22.00;;;;;14.50;77.99;100716.69;4981856;28;45458;-84
2022/03/29 03:38:19;;;;;;;;;22.00;19.00;;;;;14.50;77.94;100716.69;4999000;28;44749;-84
2022/03/29 03:40:45;;;;;;;;;31.75;26.50;;;;;14.51;77.19;100710.41;4998467;28;45410;-83
2022/03/29 03:43:10;;;;;;;;;35.67;26.00;;;;;14.51;76.74;100706.88;4980307;28;44768;-83
2022/03/29 03:45:36;;;;;;;;;33.67;28.67;;;;;14.49;75.78;100704.31;4998847;28;44799;-82
2022/03/29 03:48:02;;;;;;;;;34.50;27.75;;;;;14.53;75.52;100702.25;4986730;28;44919;-83
2022/03/29 03:50:28;;;;;;;;;39.00;29.67;;;;;14.53;77.12;100700.41;5002502;28;45492;-84
2022/03/29 03:52:54;;;;;;;;;29.67;23.33;;;;;14.51;75.07;100696.19;5000914;28;45502;-82
2022/03/29 03:55:21;;;;;;;;;32.75;27.50;;;;;14.50;75.98;100697.97;4992401;28;44751;-85
2022/03/29 03:57:48;;;;;;;;;31.50;28.75;;;;;14.50;76.35;100689.13;5003184;28;45537;-86
2022/03/29 04:00:13;;;;;;;;;33.00;26.25;;;;;14.49;75.39;100698.13;5001402;28;45470;-85
2022/03/29 04:02:40;;;;;;;;;17.50;12.50;;;;;14.47;76.37;100681.34;5005171;28;45298;-86
2022/03/29 04:05:08;;;;;;;;;33.33;27.67;;;;;14.49;75.29;100690.09;4986862;28;44835;-84
2022/03/29 04:07:34;;;;;;;;;22.75;20.25;;;;;14.47;75.80;100692.88;5004543;28;45153;-84
2022/03/29 04:09:59;;;;;;;;;33.33;30.33;;;;;14.47;76.23;100684.00;5008284;28;45327;-85
2022/03/29 04:12:25;;;;;;;;;37.33;28.00;;;;;14.44;77.35;100679.75;4987058;28;45430;-85
2022/03/29 04:14:50;;;;;;;;;37.50;32.25;;;;;14.40;76.61;100683.66;4987919;28;44821;-84
2022/03/29 04:17:15;;;;;;;;;38.33;34.33;;;;;14.35;77.31;100686.72;4988953;28;44987;-85
2022/03/29 04:19:41;;;;;;;;;34.75;25.75;;;;;14.31;78.86;100677.28;5005747;28;45500;-85
2022/03/29 04:22:06;;;;;;;;;28.00;25.75;;;;;14.30;77.66;100670.22;5002090;28;44714;-85
2022/03/29 04:24:32;;;;;;;;;22.67;14.00;;;;;14.28;79.73;100660.66;5002319;28;44767;-85
2022/03/29 04:26:58;;;;;;;;;36.33;26.67;;;;;14.23;77.99;100666.38;4984731;28;45317;-84
2022/03/29 04:29:23;;;;;;;;;25.67;22.67;;;;;14.21;76.72;100683.50;5000092;28;45316;-85
2022/03/29 04:31:51;;;;;;;;;28.75;20.75;;;;;14.21;81.14;100689.69;5001524;28;45433;-85
2022/03/29 04:34:17;;;;;;;;;30.50;25.00;;;;;14.16;81.83;100686.56;4999655;28;45281;-87
2022/03/29 04:36:42;;;;;;;;;24.00;23.50;;;;;14.12;81.33;100683.31;4983626;28;44920;-85
2022/03/29 04:39:07;;;;;;;;;30.33;26.67;;;;;14.09;79.11;100678.22;4966101;28;46893;-85
2022/03/29 04:41:34;;;;;;;;;26.67;26.00;;;;;14.06;81.16;100673.09;5002012;28;44782;-86
2022/03/29 04:43:59;;;;;;;;;31.33;29.33;;;;;14.06;82.56;100666.91;5003608;28;45315;-86
2022/03/29 04:46:25;;;;;;;;;36.33;29.00;;;;;14.07;82.37;100672.16;4988539;28;44839;-86
2022/03/29 04:48:54;;;;;;;;;35.25;28.50;;;;;14.04;84.78;100675.06;5003640;28;45318;-85
2022/03/29 04:51:19;;;;;;;;;27.33;27.33;;;;;14.03;84.38;100670.72;5004888;28;44656;-85
2022/03/29 04:53:45;;;;;;;;;28.33;25.33;;;;;13.97;84.76;100660.50;5001518;28;44744;-85
2022/03/29 04:56:10;;;;;;;;;27.67;26.33;;;;;13.93;86.86;100656.41;4968827;28;45335;-85
2022/03/29 04:58:36;;;;;;;;;37.50;34.25;;;;;13.89;87.59;100662.97;4983276;28;45295;-84
2022/03/29 05:01:01;;;;;;;;;35.67;26.67;;;;;13.91;86.78;100662.84;5002927;28;45314;-86
2022/03/29 05:03:27;;;;;;;;;42.00;31.33;;;;;13.88;82.84;100656.78;5001070;28;45535;-85
2022/03/29 05:05:53;;;;;;;;;29.75;25.50;;;;;13.88;88.30;100654.13;4981543;28;45451;-86
2022/03/29 05:08:18;;;;;;;;;34.33;29.00;;;;;13.87;88.66;100657.75;5000517;28;45425;-85
2022/03/29 05:10:44;;;;;;;;;38.33;33.00;;;;;13.86;88.05;100657.88;5002855;28;44743;-84
2022/03/29 05:13:09;;;;;;;;;35.67;32.67;;;;;13.82;89.17;100662.63;5005462;28;45706;-85
2022/03/29 05:15:35;;;;;;;;;38.67;31.67;;;;;13.82;89.76;100672.44;5008156;28;44811;-85
2022/03/29 05:18:01;;;;;;;;;31.00;30.00;;;;;13.81;90.26;100673.44;5008968;28;45543;-86
2022/03/29 05:20:28;;;;;;;;;42.67;31.00;;;;;13.83;88.97;100671.50;5007960;28;45444;-85
2022/03/29 05:22:55;;;;;;;;;37.00;32.00;;;;;13.85;88.86;100658.88;4986235;28;45378;-87
2022/03/29 05:25:23;;;;;;;;;26.33;24.00;;;;;13.81;85.68;100644.06;4981173;28;45589;-87
2022/03/29 05:27:50;;;;;;;;;34.00;20.33;;;;;13.78;89.25;100644.31;4980992;28;45521;-86
2022/03/29 05:30:17;;;;;;;;;43.33;33.67;;;;;13.77;84.61;100651.47;5001660;28;45310;-86
2022/03/29 05:32:42;;;;;;;;;35.33;30.00;;;;;13.76;90.92;100657.78;5003542;28;44750;-87
2022/03/29 05:35:10;;;;;;;;;32.00;30.00;;;;;13.74;90.76;100664.25;5004349;28;44865;-87
2022/03/29 05:37:37;;;;;;;;;40.00;31.00;;;;;13.75;89.85;100653.44;5006704;28;45320;-87
2022/03/29 05:40:04;;;;;;;;;34.67;30.67;;;;;13.74;91.13;100645.56;5000507;28;45445;-86
2022/03/29 05:42:30;;;;;;;;;35.33;31.33;;;;;13.75;87.72;100648.09;5000197;28;45346;-86
2022/03/29 05:44:56;;;;;;;;;27.00;26.33;;;;;13.76;88.78;100640.91;4985390;28;45306;-84
2022/03/29 05:50:06;;;;;;;;;34.33;29.33;;;;;13.75;89.62;100653.44;4999854;28;45503;-82
2022/03/29 05:52:32;;;;;;;;;38.00;31.00;;;;;13.77;90.28;100651.47;4998565;28;44826;-84
2022/03/29 05:54:57;;;;;;;;;38.67;34.00;;;;;13.82;90.70;100657.28;5014443;28;45454;-85
2022/03/29 05:57:23;;;;;;;;;34.00;28.67;;;;;13.82;91.16;100651.09;5004481;28;45460;-85
2022/03/29 05:59:49;;;;;;;;;34.75;25.50;;;;;13.84;89.39;100643.81;5000498;28;44725;-85
2022/03/29 06:02:14;;;;;;;;;37.00;29.00;;;;;13.85;87.49;100648.19;4998420;28;45115;-85
2022/03/29 06:04:40;;;;;;;;;33.00;30.00;;;;;13.87;91.12;100649.72;4998003;28;44811;-84
2022/03/29 06:07:08;;;;;;;;;35.67;28.00;;;;;13.89;88.82;100653.16;5000099;28;45445;-85
2022/03/29 06:09:34;;;;;;;;;31.33;29.33;;;;;13.92;88.31;100648.50;4999828;28;44766;-84
2022/03/29 06:12:00;;;;;;;;;34.67;27.33;;;;;13.92;88.98;100656.53;5001255;28;45409;-84
2022/03/29 06:14:25;;;;;;;;;27.75;24.25;;;;;13.95;89.59;100661.63;5003224;28;45488;-85
2022/03/29 06:16:51;;;;;;;;;42.25;31.25;;;;;14.00;89.17;100665.59;5010382;28;45227;-84
2022/03/29 06:19:17;;;;;;;;;29.67;28.67;;;;;14.02;89.02;100676.16;5007643;28;45374;-85
2022/03/29 06:21:43;;;;;;;;;26.00;25.00;;;;;14.03;89.14;100680.56;5012547;28;44829;-84
2022/03/29 06:24:10;;;;;;;;;24.50;22.00;;;;;14.06;88.22;100680.28;5014036;28;44845;-84
2022/03/29 06:26:37;;;;;;;;;30.33;26.00;;;;;14.08;88.21;100681.03;5005048;28;45436;-83
2022/03/29 06:29:06;;;;;;;;;29.00;24.75;;;;;14.10;86.99;100676.38;5000796;28;45385;-85
2022/03/29 06:31:32;;;;;;;;;25.75;25.00;;;;;14.12;89.18;100685.97;4999271;28;44819;-84
2022/03/29 06:33:58;;;;;;;;;36.33;35.00;;;;;14.14;89.59;100686.69;5000425;28;45466;-85
2022/03/29 06:36:23;;;;;;;;;35.00;27.00;;;;;14.19;90.00;100688.13;4998330;28;47097;-84
2022/03/29 06:38:49;;;;;;;;;33.75;32.00;;;;;14.23;90.32;100689.59;5000840;28;44791;-84
2022/03/29 06:41:15;;;;;;;;;44.67;28.00;;;;;14.25;90.89;100674.25;5000727;28;45513;-85
2022/03/29 06:43:40;;;;;;;;;32.50;29.75;;;;;14.27;90.59;100672.31;5002392;28;44780;-84
2022/03/29 06:46:08;;;;;;;;;41.33;30.67;;;;;14.32;90.78;100673.63;5007041;28;45173;-84
2022/03/29 06:48:39;;;;;;;;;30.00;27.25;;;;;14.39;90.54;100669.44;5001401;28;45277;-86
2022/03/29 06:51:05;;;;;;;;;42.00;32.67;;;;;14.46;89.99;100668.97;5000081;28;45329;-85
2022/03/29 06:53:30;;;;;;;;;38.50;28.50;;;;;14.52;90.13;100677.34;5001382;28;45380;-84
2022/03/29 06:55:56;;;;;;;;;36.33;30.00;;;;;14.56;91.13;100670.75;4997676;28;45363;-84
2022/03/29 06:58:22;;;;;;;;;34.50;29.75;;;;;14.61;91.16;100673.88;5013411;28;44803;-83
2022/03/29 07:00:48;;;;;;;;;29.75;25.75;;;;;14.65;90.85;100669.13;5014532;28;45278;-84
2022/03/29 07:03:13;;;;;;;;;33.75;27.25;;;;;14.69;88.55;100662.50;5007514;28;45446;-84
2022/03/29 07:05:42;;;;;;;;;32.33;26.00;;;;;14.62;88.32;100654.19;5017641;28;45592;-83
2022/03/29 07:08:12;;;;;;;;;40.33;31.67;;;;;14.64;86.76;100659.38;5009259;28;45229;-85
2022/03/29 07:13:23;;;;;;;;;30.75;25.00;;;;;14.60;87.25;100656.16;5015234;28;45279;-85
2022/03/29 07:15:49;;;;;;;;;39.00;32.00;;;;;14.63;88.23;100652.34;5007247;28;45276;-85
2022/03/29 07:18:15;;;;;;;;;33.75;31.25;;;;;14.65;89.21;100643.22;5021039;28;45480;-84
2022/03/29 07:20:40;;;;;;;;;33.50;30.50;;;;;14.74;89.88;100651.44;5030947;28;44748;-84
2022/03/29 07:23:06;;;;;;;;;32.67;28.00;;;;;14.82;90.15;100649.78;5029842;28;45301;-84
2022/03/29 07:25:32;;;;;;;;;32.50;24.75;;;;;14.92;90.54;100652.53;5014298;28;45457;-83
2022/03/29 07:27:58;;;;;;;;;34.00;20.00;;;;;14.98;89.89;100649.31;5015042;28;44746;-83
2022/03/29 07:30:24;;;;;;;;;24.00;23.50;;;;;15.05;87.82;100644.28;5013735;28;44807;-84
2022/03/29 07:32:53;;;;;;;;;35.25;26.50;;;;;15.04;85.78;100648.81;5027286;28;44802;-84
2022/03/29 07:35:21;;;;;;;;;25.75;25.00;;;;;15.06;87.24;100646.81;5024410;28;45062;-85
2022/03/29 07:37:48;;;;;;;;;34.75;31.00;;;;;15.12;89.36;100645.44;5013063;28;44811;-84
2022/03/29 07:40:15;;;;;;;;;35.33;26.67;;;;;15.18;89.01;100647.56;5024949;28;45330;-84
2022/03/29 07:42:41;;;;;;;;;30.67;25.67;;;;;15.24;88.98;100640.84;5019570;28;45321;-84
2022/03/29 07:45:09;;;;;;;;;38.33;28.00;;;;;15.25;87.57;100643.38;5001804;28;46899;-83
2022/03/29 07:47:34;;;;;;;;;28.00;25.67;;;;;15.29;88.41;100636.78;5023376;28;45333;-82
2022/03/29 07:50:06;;;;;;;;;31.67;25.00;;;;;15.32;88.84;100641.00;5002102;28;45469;-84
2022/03/29 07:52:31;;;;;;;;;25.33;18.67;;;;;15.37;88.69;100641.44;5018352;28;45489;-84
2022/03/29 07:54:57;;;;;;;;;30.50;26.00;;;;;15.43;87.73;100630.22;5018350;28;45425;-84
2022/03/29 07:57:23;;;;;;;;;28.75;23.25;;;;;15.46;85.66;100639.78;5000874;28;44851;-85
2022/03/29 07:59:49;;;;;;;;;37.33;30.00;;;;;15.51;87.20;100632.19;5019656;28;45868;-85
2022/03/29 08:02:14;;;;;;;;;26.75;26.50;;;;;15.57;86.86;100620.91;5015204;28;45485;-85
2022/03/29 08:04:40;;;;;;;;;38.50;30.25;;;;;15.66;88.11;100626.34;4998360;28;45493;-85
2022/03/29 08:07:06;;;;;;;;;37.00;25.00;;;;;15.72;85.59;100611.56;4999401;28;45247;-84
2022/03/29 08:09:32;;;;;;;;;35.75;30.75;;;;;15.66;83.66;100612.09;5017642;28;44830;-85
2022/03/29 08:11:57;;;;;;;;;33.00;25.25;;;;;15.60;83.73;100616.13;5017627;28;45443;-84
2022/03/29 08:14:25;;;;;;;;;33.50;30.25;;;;;15.61;83.64;100617.81;5019957;28;45006;-86
2022/03/29 08:16:51;;;;;;;;;40.75;29.00;;;;;15.63;83.45;100605.19;5022806;28;44691;-85
2022/03/29 08:19:17;;;;;;;;;30.50;27.75;;;;;15.83;83.58;100610.56;5016806;28;45251;-86
2022/03/29 08:21:49;;;;;;;;;41.50;30.50;;;;;15.98;82.05;100606.50;5002638;28;44732;-83
2022/03/29 08:24:19;;;;;;;;;38.25;31.00;;;;;15.97;81.83;100599.44;5022225;28;45218;-84
2022/03/29 08:26:46;;;;;;;;;32.50;27.75;;;;;16.04;81.03;100599.72;5016884;28;44810;-84
2022/03/29 08:29:12;;;;;;;;;28.50;24.00;;;;;16.14;80.93;100598.72;4990159;28;44848;-84
2022/03/29 08:31:38;;;;;;;;;40.00;32.75;;;;;16.27;80.64;100590.41;4998173;28;45497;-84
2022/03/29 08:34:05;;;;;;;;;35.50;28.75;;;;;16.32;79.51;100600.69;5023582;28;45071;-85
2022/03/29 08:36:31;;;;;;;;;23.50;18.50;;;;;16.31;78.88;100589.13;5019316;28;45207;-85
2022/03/29 08:38:56;;;;;;;;;31.75;27.75;;;;;16.48;79.70;100589.38;5019311;28;44696;-85
2022/03/29 08:41:22;;;;;;;;;40.25;31.50;;;;;16.48;79.38;100586.69;5019767;28;44835;-85
2022/03/29 08:43:48;;;;;;;;;29.00;25.00;;;;;16.56;79.34;100574.25;5020752;28;45245;-84
2022/03/29 08:46:13;;;;;;;;;40.00;29.75;;;;;16.65;78.55;100581.44;5018893;28;45467;-84
2022/03/29 08:48:41;;;;;;;;;36.00;30.00;;;;;16.87;78.88;100582.91;5007394;28;44772;-86
2022/03/29 08:51:06;;;;;;;;;32.25;29.00;;;;;17.08;77.88;100577.34;5004533;28;44736;-84
2022/03/29 08:53:32;;;;;;;;;37.25;28.75;;;;;17.11;77.26;100568.97;4998949;28;45303;-86
2022/03/29 08:55:57;;;;;;;;;31.00;29.25;;;;;17.22;77.39;100562.59;4980779;28;45291;-83
2022/03/29 08:58:24;;;;;;;;;30.25;29.50;;;;;17.21;76.82;100560.88;5002998;28;45627;-85
2022/03/29 09:00:49;;;;;;;;;30.75;28.25;;;;;17.27;77.47;100567.50;4986944;28;44862;-85
2022/03/29 09:03:21;;;;;;;;;46.00;32.00;;;;;17.37;77.89;100569.13;5003668;28;46724;-85
2022/03/29 09:06:03;;;;;;;;;37.25;29.00;;;;;17.38;76.78;100559.22;5002769;28;44814;-85
2022/03/29 09:08:44;;;;;;;;;40.00;32.25;;;;;17.45;77.14;100561.19;5000868;28;44772;-86
2022/03/29 09:11:10;;;;;;;;;28.50;23.50;;;;;17.80;77.64;100551.47;4986014;28;44915;-85
2022/03/29 09:13:35;;;;;;;;;39.50;33.25;;;;;18.10;76.46;100557.44;4981196;28;45516;-85
2022/03/29 09:16:02;;;;;;;;;33.25;28.00;;;;;18.36;76.06;100550.22;5003928;28;45302;-84
2022/03/29 09:18:30;;;;;;;;;38.75;28.25;;;;;18.47;74.33;100549.13;4985206;28;44822;-85
2022/03/29 09:21:11;;;;;;;;;40.75;33.00;;;;;18.56;72.84;100550.00;5008196;28;44756;-86
2022/03/29 09:23:37;;;;;;;;;38.50;32.25;;;;;18.47;72.26;100547.28;5004118;28;45296;-84
2022/03/29 09:26:03;;;;;;;;;22.50;18.50;;;;;18.45;72.40;100541.22;5003940;28;44763;-84
2022/03/29 09:28:37;;;;;;;;;38.00;32.25;;;;;18.43;73.30;100537.84;4999373;28;45388;-84
2022/03/29 09:31:22;;;;;;;;;43.50;32.50;;;;;18.42;72.91;100543.38;5009989;28;45491;-84
2022/03/29 09:33:48;;;;;;;;;30.00;28.50;;;;;18.29;72.79;100542.97;5005341;28;45225;-86
2022/03/29 09:36:20;;;;;;;;;35.25;32.50;;;;;18.31;73.96;100540.94;5018686;28;44815;-85
2022/03/29 09:38:47;;;;;;;;;40.25;33.00;;;;;18.23;73.25;100547.13;4997450;28;44834;-87
2022/03/29 09:41:26;;;;;;;;;40.67;35.33;;;;;18.45;72.88;100535.81;5002592;28;44903;-85
2022/03/29 09:44:03;;;;;;;;;40.50;34.25;;;;;18.67;73.51;100541.69;5015778;28;45128;-85
2022/03/29 09:46:30;;;;;;;;;43.25;33.50;;;;;18.96;72.12;100530.59;5008789;28;44875;-85
2022/03/29 09:49:00;;;;;;;;;40.00;33.50;;;;;19.11;73.04;100523.56;4997923;28;45263;-86
2022/03/29 09:51:29;;;;;;;;;52.67;42.33;;;;;19.13;71.63;100526.09;4992341;28;45311;-88
2022/03/29 09:54:02;;;;;;;;;39.00;30.00;;;;;19.22;70.21;100517.88;5001695;28;46982;-86
2022/03/29 09:56:31;;;;;;;;;40.75;32.00;;;;;19.22;67.57;100525.94;5001399;28;44856;-85
2022/03/29 09:59:16;;;;;;;;;32.75;29.25;;;;;18.98;67.82;100526.72;5001893;28;44867;-85
2022/03/29 10:01:54;;;;;;;;;49.33;37.00;;;;;18.74;69.83;100524.75;4991764;28;44783;-86
2022/03/29 10:04:21;;;;;;;;;48.00;37.67;;;;;18.77;69.94;100520.91;5015824;28;45382;-86
2022/03/29 10:06:52;;;;;;;;;41.00;32.25;;;;;18.88;69.18;100514.38;4987355;28;44728;-86
2022/03/29 10:09:27;;;;;;;;;41.33;35.67;;;;;18.97;70.70;100510.72;5018956;28;44786;-86
2022/03/29 10:12:03;;;;;;;;;38.00;32.75;;;;;18.95;71.47;100512.72;5011954;28;44791;-84
2022/03/29 10:14:31;;;;;;;;;44.00;34.25;;;;;19.03;71.40;100493.91;5004629;28;46231;-85
2022/03/29 10:16:57;;;;;;;;;31.00;31.00;;;;;19.28;71.39;100497.50;4988214;28;45430;-86
2022/03/29 10:19:23;;;;;;;;;41.50;32.25;;;;;19.45;69.76;100495.72;4988165;28;45333;-86
2022/03/29 10:21:50;;;;;;;;;41.33;35.00;;;;;19.37;66.78;100493.00;5015863;28;44961;-85
2022/03/29 10:24:18;;;;;;;;;35.75;33.00;;;;;19.43;67.24;100492.31;5007722;28;45248;-84
2022/03/29 10:26:47;;;;;;;;;40.25;34.00;;;;;19.60;69.07;100485.97;4997088;28;45244;-86
2022/03/29 10:29:13;;;;;;;;;41.50;35.25;;;;;19.70;69.02;100483.97;4988968;28;44762;-85
2022/03/29 10:31:50;;;;;;;;;46.00;31.67;;;;;19.86;69.03;100482.28;5008038;28;44731;-88
2022/03/29 10:34:30;;;;;;;;;41.75;35.00;;;;;19.87;66.00;100489.34;5017742;28;45347;-86
2022/03/29 10:37:17;;;;;;;;;28.00;18.33;;;;;19.85;66.59;100480.59;5005157;28;45563;-86
2022/03/29 10:39:46;;;;;;;;;54.67;37.33;;;;;19.95;67.02;100476.72;4995996;28;45403;-86
2022/03/29 10:42:28;;;;;;;;;52.25;37.50;;;;;20.07;62.12;100490.69;4984526;28;44899;-86
2022/03/29 10:45:10;;;;;;;;;40.25;32.00;;;;;20.05;63.32;100476.53;5017655;28;45208;-87
2022/03/29 10:47:38;;;;;;;;;37.50;32.25;;;;;20.07;64.75;100476.38;5008776;28;45441;-85
2022/03/29 10:50:06;;;;;;;;;43.25;34.50;;;;;19.94;66.11;100469.63;5004008;28;45236;-84
2022/03/29 10:52:44;;;;;;;;;34.00;29.25;;;;;19.91;65.08;100467.28;5002518;28;45496;-85
2022/03/29 10:55:15;;;;;;;;;38.75;34.75;;;;;20.00;64.34;100465.41;5010220;28;45337;-87
2022/03/29 10:58:01;;;;;;;;;41.33;35.00;;;;;20.03;63.09;100465.09;4995114;28;44819;-87
2022/03/29 11:00:31;;;;;;;;;40.00;30.33;;;;;20.17;63.74;100464.38;5007712;28;44758;-86
2022/03/29 11:03:22;;;;;;;;;41.50;31.50;;;;;20.30;64.47;100458.44;5017025;28;44822;-86
2022/03/29 11:06:10;;;;;;;;;36.75;31.75;;;;;20.53;62.19;100453.16;4998515;28;45468;-87
2022/03/29 11:09:06;;;;;;;;;43.00;35.25;;;;;20.45;60.82;100451.34;5021849;28;45263;-86
2022/03/29 11:11:43;;;;;;;;;48.00;37.00;;;;;20.35;60.52;100456.06;4999778;28;44891;-86
2022/03/29 11:14:27;;;;;;;;;42.50;32.50;;;;;20.14;61.99;100451.22;5012066;28;44732;-86
2022/03/29 11:17:12;;;;;;;;;46.67;39.67;;;;;20.21;64.34;100446.84;5017882;28;45270;-85
2022/03/29 11:19:46;;;;;;;;;41.00;36.67;;;;;20.36;63.32;100452.38;5022397;28;45278;-85